createdAt,value
2017-10-11T00:02:15.549Z,14.50
2017-10-11T00:04:43.773Z,14.50
2017-10-11T00:07:11.325Z,14.40
2017-10-11T00:09:38.834Z,14.40
2017-10-11T00:12:07.075Z,14.60
2017-10-11T00:14:34.540Z,14.60
2017-10-11T00:17:02.011Z,14.60
2017-10-11T00:19:29.743Z,14.60
2017-10-11T00:21:57.222Z,14.60
2017-10-11T00:24:24.695Z,14.60
2017-10-11T00:26:52.166Z,14.60
2017-10-11T00:29:20.480Z,14.60
2017-10-11T00:31:48.193Z,14.50
2017-10-11T00:34:15.661Z,14.50
2017-10-11T00:36:43.894Z,14.60
2017-10-11T00:39:11.375Z,14.50
2017-10-11T00:41:38.839Z,14.50
2017-10-11T00:44:06.309Z,14.60
2017-10-11T00:46:34.562Z,14.60
2017-10-11T00:49:02.027Z,14.50
2017-10-11T00:51:29.492Z,14.60
2017-10-11T00:53:57.733Z,14.70
2017-10-11T00:56:25.227Z,14.60
2017-10-11T00:58:53.486Z,14.70
2017-10-11T01:01:21.055Z,14.60
2017-10-11T01:03:49.295Z,14.60
2017-10-11T01:06:16.759Z,14.60
2017-10-11T01:08:44.334Z,14.60
2017-10-11T01:11:11.799Z,14.60
2017-10-11T01:13:40.026Z,14.70
2017-10-11T01:16:07.582Z,14.60
2017-10-11T01:18:35.045Z,14.80
2017-10-11T01:21:02.534Z,14.80
2017-10-11T01:23:29.994Z,14.80
2017-10-11T01:25:57.464Z,14.80
2017-10-11T01:28:25.719Z,14.80
2017-10-11T01:30:53.185Z,14.80
2017-10-11T01:33:20.650Z,14.80
2017-10-11T01:35:48.922Z,14.80
2017-10-11T01:38:17.193Z,14.80
2017-10-11T01:40:44.751Z,14.80
2017-10-11T01:43:12.927Z,14.90
2017-10-11T01:45:40.388Z,14.90
2017-10-11T01:48:08.657Z,14.90
2017-10-11T01:50:36.885Z,14.80
2017-10-11T01:53:04.364Z,14.80
2017-10-11T01:55:31.822Z,14.80
2017-10-11T01:57:59.295Z,14.70
2017-10-11T02:00:26.761Z,14.70
2017-10-11T02:02:55.020Z,14.70
2017-10-11T02:05:22.490Z,14.70
2017-10-11T02:07:49.957Z,14.80
2017-10-11T02:10:18.273Z,14.80
2017-10-11T02:12:45.737Z,14.70
2017-10-11T02:15:13.225Z,14.70
2017-10-11T02:17:40.706Z,14.70
2017-10-11T02:20:08.962Z,14.60
2017-10-11T02:22:36.538Z,14.60
2017-10-11T02:25:04.778Z,14.50
2017-10-11T02:27:32.264Z,14.50
2017-10-11T02:30:00.502Z,14.50
2017-10-11T02:32:28.040Z,14.50
2017-10-11T02:34:55.560Z,14.50
2017-10-11T02:37:23.798Z,14.50
2017-10-11T02:39:51.373Z,14.50
2017-10-11T02:42:18.838Z,14.50
2017-10-11T02:44:46.318Z,14.50
2017-10-11T02:47:14.549Z,14.40
2017-10-11T02:49:42.030Z,14.40
2017-10-11T02:52:09.534Z,14.50
2017-10-11T02:54:37.003Z,14.50
2017-10-11T02:57:04.495Z,14.50
2017-10-11T02:59:33.489Z,14.50
2017-10-11T03:02:00.957Z,14.50
2017-10-11T03:04:29.218Z,14.60
2017-10-11T03:06:56.698Z,14.50
2017-10-11T03:09:24.937Z,14.60
2017-10-11T03:11:52.409Z,14.50
2017-10-11T03:14:19.873Z,14.40
2017-10-11T03:16:48.119Z,14.50
2017-10-11T03:19:15.586Z,14.40
2017-10-11T03:21:43.164Z,14.50
2017-10-11T03:24:10.625Z,14.50
2017-10-11T03:26:38.871Z,14.50
2017-10-11T03:29:06.400Z,14.40
2017-10-11T03:31:33.898Z,14.40
2017-10-11T03:34:01.367Z,14.30
2017-10-11T03:36:28.927Z,14.30
2017-10-11T03:38:56.481Z,14.40
2017-10-11T03:41:24.039Z,14.40
2017-10-11T03:43:52.318Z,14.40
2017-10-11T03:46:19.785Z,14.30
2017-10-11T03:48:48.045Z,14.50
2017-10-11T03:51:15.606Z,14.40
2017-10-11T03:53:43.161Z,14.40
2017-10-11T03:56:10.634Z,14.40
2017-10-11T03:58:38.962Z,14.30
2017-10-11T04:01:06.439Z,14.30
2017-10-11T04:03:33.911Z,14.40
2017-10-11T04:06:01.373Z,14.40
2017-10-11T04:08:29.625Z,14.40
2017-10-11T04:10:57.101Z,14.40
2017-10-11T04:13:24.669Z,14.40
2017-10-11T04:15:52.904Z,14.30
2017-10-11T04:18:20.389Z,14.20
2017-10-11T04:20:47.845Z,14.30
2017-10-11T04:23:15.318Z,14.30
2017-10-11T04:25:43.553Z,14.30
2017-10-11T04:28:11.026Z,14.20
2017-10-11T04:30:38.494Z,14.30
2017-10-11T04:33:05.965Z,14.30
2017-10-11T04:35:34.197Z,14.30
2017-10-11T04:38:01.671Z,14.30
2017-10-11T04:40:29.148Z,14.40
2017-10-11T04:42:57.384Z,14.30
2017-10-11T04:45:24.861Z,14.30
2017-10-11T04:47:52.326Z,14.30
2017-10-11T04:50:19.799Z,14.40
2017-10-11T04:52:48.026Z,14.40
2017-10-11T04:55:15.498Z,14.30
2017-10-11T04:57:43.066Z,14.30
2017-10-11T05:00:10.579Z,14.30
2017-10-11T05:02:38.041Z,14.30
2017-10-11T05:05:05.541Z,14.40
2017-10-11T05:07:33.101Z,14.40
2017-10-11T05:10:00.577Z,14.40
2017-10-11T05:12:28.827Z,14.30
2017-10-11T05:14:56.391Z,14.30
2017-10-11T05:17:23.878Z,14.30
2017-10-11T05:19:52.115Z,14.20
2017-10-11T05:22:19.573Z,14.20
2017-10-11T05:24:47.138Z,14.30
2017-10-11T05:27:15.413Z,14.30
2017-10-11T05:29:42.881Z,14.20
2017-10-11T05:32:11.201Z,14.20
2017-10-11T05:34:38.705Z,14.20
2017-10-11T05:37:06.169Z,14.20
2017-10-11T05:39:33.630Z,14.20
2017-10-11T05:42:01.869Z,14.10
2017-10-11T05:44:29.346Z,14.10
2017-10-11T05:46:56.830Z,14.20
2017-10-11T05:49:25.087Z,14.30
2017-10-11T05:51:52.739Z,14.30
2017-10-11T05:54:20.302Z,14.40
2017-10-11T05:56:48.543Z,14.40
2017-10-11T05:59:16.019Z,14.30
2017-10-11T06:01:43.482Z,14.40
2017-10-11T06:04:10.953Z,14.40
2017-10-11T06:06:39.201Z,14.30
2017-10-11T06:09:06.676Z,14.30
2017-10-11T06:11:34.146Z,14.40
2017-10-11T06:14:02.390Z,14.30
2017-10-11T06:16:29.895Z,14.30
2017-10-11T06:18:57.365Z,14.30
2017-10-11T06:21:25.703Z,14.40
2017-10-11T06:23:53.951Z,14.40
2017-10-11T06:26:21.433Z,14.40
2017-10-11T06:28:48.986Z,14.40
2017-10-11T06:31:16.474Z,14.50
2017-10-11T06:33:44.725Z,14.60
2017-10-11T06:36:12.214Z,14.60
2017-10-11T06:38:39.707Z,14.60
2017-10-11T06:41:07.197Z,14.60
2017-10-11T06:43:34.758Z,14.60
2017-10-11T06:46:02.250Z,14.50
2017-10-11T06:48:29.767Z,14.50
2017-10-11T06:50:57.234Z,14.50
2017-10-11T06:53:24.721Z,14.60
2017-10-11T06:55:52.193Z,14.70
2017-10-11T06:58:19.666Z,14.90
2017-10-11T07:00:47.154Z,14.90
2017-10-11T07:03:14.609Z,14.90
2017-10-11T07:05:42.178Z,14.90
2017-10-11T07:08:09.656Z,15.00
2017-10-11T07:10:37.126Z,15.10
2017-10-11T07:13:04.602Z,15.10
2017-10-11T07:15:32.090Z,15.10
2017-10-11T07:17:59.560Z,15.10
2017-10-11T07:20:27.033Z,15.00
2017-10-11T07:22:55.286Z,15.00
2017-10-11T07:25:22.750Z,15.00
2017-10-11T07:27:50.250Z,15.20
2017-10-11T07:30:17.770Z,15.10
2017-10-11T07:32:46.013Z,15.10
2017-10-11T07:35:13.480Z,15.00
2017-10-11T07:37:41.045Z,15.00
2017-10-11T07:40:08.511Z,14.90
2017-10-11T07:42:36.746Z,15.10
2017-10-11T07:45:04.213Z,15.00
2017-10-11T07:47:31.687Z,15.10
2017-10-11T07:49:59.241Z,15.10
2017-10-11T07:52:26.718Z,15.10
2017-10-11T07:54:54.987Z,15.20
2017-10-11T07:57:22.450Z,15.20
2017-10-11T07:59:50.713Z,15.20
2017-10-11T08:02:18.276Z,15.20
2017-10-11T08:04:45.829Z,15.30
2017-10-11T08:07:14.062Z,15.50
2017-10-11T08:09:41.528Z,15.40
2017-10-11T08:12:09.014Z,15.50
2017-10-11T08:14:36.580Z,15.60
2017-10-11T08:17:04.134Z,15.60
2017-10-11T08:19:31.647Z,15.50
2017-10-11T08:21:59.154Z,15.50
2017-10-11T08:24:26.710Z,15.50
2017-10-11T08:26:54.981Z,15.80
2017-10-11T08:29:22.558Z,15.70
2017-10-11T08:31:50.027Z,15.70
2017-10-11T08:34:18.276Z,15.70
2017-10-11T08:36:45.828Z,15.70
2017-10-11T08:39:13.395Z,15.80
2017-10-11T08:41:40.906Z,16.10
2017-10-11T08:44:08.405Z,16.20
2017-10-11T08:46:35.886Z,16.30
2017-10-11T08:49:04.122Z,16.50
2017-10-11T08:51:31.703Z,16.50
2017-10-11T08:53:59.167Z,16.70
2017-10-11T08:56:27.406Z,16.80
2017-10-11T08:58:54.894Z,16.70
2017-10-11T09:01:23.128Z,16.60
2017-10-11T09:03:50.677Z,16.60
2017-10-11T09:06:18.151Z,16.70
2017-10-11T09:08:45.615Z,16.60
2017-10-11T09:11:13.149Z,16.50
2017-10-11T09:13:40.614Z,16.50
2017-10-11T09:16:08.078Z,16.40
2017-10-11T09:18:36.352Z,16.40
2017-10-11T09:21:03.838Z,16.30
2017-10-11T09:23:31.432Z,16.20
2017-10-11T09:25:58.897Z,16.30
2017-10-11T09:28:26.368Z,16.30
2017-10-11T09:30:53.829Z,16.30
2017-10-11T09:33:21.306Z,16.30
2017-10-11T09:35:48.769Z,16.30
2017-10-11T09:38:16.243Z,16.30
2017-10-11T09:40:43.707Z,16.40
2017-10-11T09:43:11.978Z,16.30
2017-10-11T09:45:39.482Z,16.30
2017-10-11T09:48:06.951Z,16.40
2017-10-11T09:50:34.502Z,16.40
2017-10-11T09:53:02.009Z,16.40
2017-10-11T09:55:30.281Z,16.30
2017-10-11T09:57:57.838Z,16.30
2017-10-11T10:00:25.307Z,16.30
2017-10-11T10:02:52.814Z,16.30
2017-10-11T10:05:20.286Z,16.30
2017-10-11T10:07:47.778Z,16.30
2017-10-11T10:10:16.018Z,16.30
2017-10-11T10:12:43.491Z,16.30
2017-10-11T10:15:10.970Z,16.30
2017-10-11T10:17:39.202Z,16.30
2017-10-11T10:20:06.670Z,16.20
2017-10-11T10:22:34.250Z,16.30
2017-10-11T10:25:01.738Z,16.20
2017-10-11T10:27:29.264Z,16.10
2017-10-11T10:29:56.833Z,16.10
2017-10-11T10:32:25.096Z,16.00
2017-10-11T10:34:52.566Z,15.90
2017-10-11T10:37:20.805Z,15.90
2017-10-11T10:39:48.337Z,15.90
2017-10-11T10:42:15.815Z,16.10
2017-10-11T10:44:43.303Z,16.10
2017-10-11T10:47:10.766Z,16.10
2017-10-11T10:49:38.276Z,16.10
2017-10-11T10:52:05.758Z,16.10
2017-10-11T10:54:33.385Z,16.10
2017-10-11T10:57:00.848Z,16.00
2017-10-11T10:59:28.347Z,15.80
2017-10-11T11:01:55.910Z,15.80
2017-10-11T11:04:23.382Z,15.70
2017-10-11T11:06:51.629Z,15.80
2017-10-11T11:09:19.116Z,15.70
2017-10-11T11:11:47.351Z,15.80
2017-10-11T11:14:14.922Z,15.70
2017-10-11T11:16:42.493Z,15.70
2017-10-11T11:19:10.037Z,15.70
2017-10-11T11:21:37.497Z,15.60
2017-10-11T11:24:04.998Z,15.70
2017-10-11T11:26:32.457Z,15.80
2017-10-11T11:28:59.973Z,15.70
2017-10-11T11:31:27.434Z,15.60
2017-10-11T11:33:54.999Z,15.70
2017-10-11T11:36:23.234Z,15.80
2017-10-11T11:38:50.714Z,15.80
2017-10-11T11:41:18.299Z,15.90
2017-10-11T11:43:46.562Z,15.80
2017-10-11T11:46:14.166Z,15.80
2017-10-11T11:48:41.674Z,15.70
2017-10-11T11:51:09.927Z,15.80
2017-10-11T11:53:37.403Z,15.70
2017-10-11T11:56:04.968Z,15.80
2017-10-11T11:58:33.208Z,16.00
2017-10-11T12:01:00.719Z,15.90
2017-10-11T12:03:28.946Z,16.00
2017-10-11T12:05:56.414Z,16.00
2017-10-11T12:08:23.881Z,16.00
2017-10-11T12:10:51.357Z,16.10
2017-10-11T12:13:19.609Z,16.20
2017-10-11T12:15:47.170Z,16.20
2017-10-11T12:18:14.634Z,16.20
2017-10-11T12:20:42.194Z,16.20
2017-10-11T12:23:10.430Z,16.20
2017-10-11T12:25:37.917Z,16.20
2017-10-11T12:28:05.479Z,16.30
2017-10-11T12:30:33.755Z,16.30
2017-10-11T12:33:01.507Z,16.30
2017-10-11T12:35:29.028Z,16.30
2017-10-11T12:37:56.529Z,16.30
2017-10-11T12:40:23.997Z,16.30
2017-10-11T12:42:52.237Z,16.30
2017-10-11T12:45:19.695Z,16.30
2017-10-11T12:47:47.174Z,16.30
2017-10-11T12:50:14.652Z,16.40
2017-10-11T12:52:42.886Z,16.50
2017-10-11T12:55:10.350Z,16.50
2017-10-11T12:57:37.821Z,16.70
2017-10-11T13:00:05.299Z,16.90
2017-10-11T13:02:33.562Z,17.00
2017-10-11T13:05:01.131Z,17.00
2017-10-11T13:07:29.358Z,17.10
2017-10-11T13:09:56.831Z,17.10
2017-10-11T13:12:24.295Z,17.10
2017-10-11T13:14:51.776Z,17.10
2017-10-11T13:17:20.033Z,17.10
2017-10-11T13:19:47.597Z,17.10
2017-10-11T13:22:15.058Z,17.20
2017-10-11T13:24:42.529Z,17.20
2017-10-11T13:27:10.769Z,17.20
2017-10-11T13:29:38.348Z,17.10
2017-10-11T13:32:05.794Z,17.20
2017-10-11T13:34:33.257Z,17.10
2017-10-11T13:37:01.525Z,17.30
2017-10-11T13:39:28.993Z,17.20
2017-10-11T13:41:57.960Z,17.10
2017-10-11T13:44:25.420Z,17.10
2017-10-11T13:46:52.992Z,17.20
2017-10-11T13:49:20.454Z,17.10
2017-10-11T13:51:47.919Z,17.10
2017-10-11T13:54:16.237Z,17.20
2017-10-11T13:56:43.707Z,17.20
2017-10-11T13:59:11.175Z,17.10
2017-10-11T14:01:38.645Z,17.10
2017-10-11T14:04:06.113Z,17.10
2017-10-11T14:06:34.516Z,16.90
2017-10-11T14:09:02.761Z,16.90
2017-10-11T14:11:31.035Z,16.90
2017-10-11T14:13:58.595Z,16.90
2017-10-11T14:16:26.831Z,17.00
2017-10-11T14:18:54.908Z,17.00
2017-10-11T14:21:23.888Z,17.00
2017-10-11T14:23:52.792Z,16.90
2017-10-11T14:26:21.825Z,16.90
2017-10-11T14:28:49.344Z,16.80
2017-10-11T14:31:16.812Z,16.80
2017-10-11T14:33:44.282Z,16.90
2017-10-11T14:36:11.753Z,16.90
2017-10-11T14:38:39.870Z,17.00
2017-10-11T14:41:08.169Z,16.90
2017-10-11T14:43:36.470Z,16.80
2017-10-11T14:46:04.823Z,16.90
2017-10-11T14:48:32.287Z,16.90
2017-10-11T14:50:59.861Z,16.90
2017-10-11T14:53:27.341Z,16.90
2017-10-11T14:55:55.562Z,17.00
2017-10-11T14:58:23.039Z,17.00
2017-10-11T15:00:50.553Z,17.10
2017-10-11T15:03:18.050Z,17.00
2017-10-11T15:05:45.712Z,17.00
2017-10-11T15:08:13.243Z,17.00
2017-10-11T15:10:40.762Z,16.90
2017-10-11T15:13:08.988Z,17.00
2017-10-11T15:15:36.468Z,16.90
2017-10-11T15:18:03.927Z,16.90
2017-10-11T15:20:31.485Z,17.00
2017-10-11T15:22:59.065Z,17.00
2017-10-11T15:25:27.327Z,17.00
2017-10-11T15:27:54.805Z,17.00
2017-10-11T15:30:23.048Z,17.00
2017-10-11T15:32:50.509Z,17.00
2017-10-11T15:35:18.065Z,17.00
2017-10-11T15:37:45.538Z,17.00
2017-10-11T15:40:13.776Z,17.00
2017-10-11T15:42:41.245Z,17.00
2017-10-11T15:45:08.729Z,17.00
2017-10-11T15:47:36.223Z,17.00
2017-10-11T15:50:03.682Z,17.00
2017-10-11T15:52:31.153Z,16.90
2017-10-11T15:54:58.609Z,16.90
2017-10-11T15:57:26.099Z,16.90
2017-10-11T15:59:54.341Z,16.90
2017-10-11T16:02:21.814Z,16.90
2017-10-11T16:04:49.277Z,17.00
2017-10-11T16:07:16.753Z,17.00
2017-10-11T16:09:44.990Z,16.90
2017-10-11T16:12:12.468Z,16.90
2017-10-11T16:14:40.054Z,17.00
2017-10-11T16:17:08.281Z,16.90
2017-10-11T16:19:35.765Z,16.80
2017-10-11T16:22:03.246Z,16.90
2017-10-11T16:24:31.489Z,16.70
2017-10-11T16:26:59.053Z,16.70
2017-10-11T16:29:28.036Z,16.70
2017-10-11T16:31:55.496Z,16.70
2017-10-11T16:34:22.966Z,16.90
2017-10-11T16:36:51.196Z,16.90
2017-10-11T16:39:18.662Z,16.80
2017-10-11T16:41:46.126Z,16.90
2017-10-11T16:44:13.605Z,16.80
2017-10-11T16:46:42.656Z,16.70
2017-10-11T16:49:10.136Z,16.70
2017-10-11T16:51:37.589Z,16.70
2017-10-11T16:54:05.173Z,16.70
2017-10-11T16:56:32.641Z,16.70
2017-10-11T16:59:00.125Z,16.70
2017-10-11T17:01:27.665Z,16.70
2017-10-11T17:03:55.942Z,16.70
2017-10-11T17:06:24.994Z,16.70
2017-10-11T17:08:52.529Z,16.60
2017-10-11T17:11:20.051Z,16.70
2017-10-11T17:13:48.277Z,16.60
2017-10-11T17:16:15.777Z,16.60
2017-10-11T17:18:44.097Z,16.70
2017-10-11T17:21:11.573Z,16.60
2017-10-11T17:23:39.110Z,16.60
2017-10-11T17:26:06.583Z,16.60
2017-10-11T17:28:34.050Z,16.60
2017-10-11T17:31:01.531Z,16.50
2017-10-11T17:33:28.999Z,16.50
2017-10-11T17:35:57.271Z,16.60
2017-10-11T17:38:24.763Z,16.50
2017-10-11T17:40:52.238Z,16.50
2017-10-11T17:43:19.712Z,16.40
2017-10-11T17:45:47.186Z,16.40
2017-10-11T17:48:14.802Z,16.50
2017-10-11T17:50:42.262Z,16.50
2017-10-11T17:53:09.733Z,16.40
2017-10-11T17:55:37.226Z,16.40
2017-10-11T17:58:05.518Z,16.40
2017-10-11T18:00:33.749Z,16.40
2017-10-11T18:03:01.345Z,16.40
2017-10-11T18:05:29.617Z,16.60
2017-10-11T18:07:57.857Z,16.50
2017-10-11T18:10:25.340Z,16.50
2017-10-11T18:12:52.926Z,16.40
2017-10-11T18:15:20.385Z,16.50
2017-10-11T18:17:47.966Z,16.40
2017-10-11T18:20:15.442Z,16.50
2017-10-11T18:22:42.935Z,16.50
2017-10-11T18:25:12.260Z,16.40
2017-10-11T18:27:39.867Z,16.30
2017-10-11T18:30:07.342Z,16.40
2017-10-11T18:32:35.582Z,16.40
2017-10-11T18:35:03.044Z,16.30
2017-10-11T18:37:30.518Z,16.40
2017-10-11T18:39:57.991Z,16.40
2017-10-11T18:42:25.476Z,16.40
2017-10-11T18:44:53.996Z,16.40
2017-10-11T18:47:22.294Z,16.30
2017-10-11T18:49:49.853Z,16.20
2017-10-11T18:52:17.474Z,16.20
2017-10-11T18:54:44.981Z,16.30
2017-10-11T18:57:12.457Z,16.30
2017-10-11T18:59:40.690Z,16.30
2017-10-11T19:02:08.174Z,16.30
2017-10-11T19:04:35.724Z,16.40
2017-10-11T19:07:03.194Z,16.50
2017-10-11T19:09:31.473Z,16.50
2017-10-11T19:11:59.738Z,16.40
2017-10-11T19:14:27.980Z,16.30
2017-10-11T19:16:55.450Z,16.20
2017-10-11T19:19:23.030Z,16.50
2017-10-11T19:21:50.501Z,16.40
2017-10-11T19:24:18.751Z,16.40
2017-10-11T19:26:47.863Z,16.40
2017-10-11T19:29:16.694Z,16.30
2017-10-11T19:31:45.584Z,16.20
2017-10-11T19:34:14.306Z,16.10
2017-10-11T19:36:43.854Z,16.10
2017-10-11T19:39:11.569Z,16.20
2017-10-11T19:41:39.866Z,16.10
2017-10-11T19:44:08.126Z,16.10
2017-10-11T19:46:35.598Z,16.10
2017-10-11T19:49:03.869Z,16.10
2017-10-11T19:51:31.358Z,16.10
2017-10-11T19:53:58.835Z,16.20
2017-10-11T19:56:26.310Z,16.20
2017-10-11T19:58:53.769Z,16.20
2017-10-11T20:01:21.238Z,16.20
2017-10-11T20:03:48.709Z,16.20
2017-10-11T20:06:16.177Z,16.20
2017-10-11T20:08:44.410Z,16.20
2017-10-11T20:11:11.921Z,16.10
2017-10-11T20:13:40.168Z,16.10
2017-10-11T20:16:07.745Z,16.10
2017-10-11T20:18:36.025Z,16.20
2017-10-11T20:21:04.271Z,16.10
2017-10-11T20:23:31.737Z,16.00
2017-10-11T20:25:59.236Z,16.10
2017-10-11T20:28:26.709Z,16.10
2017-10-11T20:30:54.204Z,16.10
2017-10-11T20:33:21.825Z,16.00
2017-10-11T20:35:50.475Z,16.10
2017-10-11T20:38:18.712Z,16.10
2017-10-11T20:40:46.223Z,16.10
2017-10-11T20:43:13.749Z,16.10
2017-10-11T20:45:41.306Z,16.10
2017-10-11T20:48:08.765Z,16.10
2017-10-11T20:50:36.238Z,16.00
2017-10-11T20:53:04.486Z,15.90
2017-10-11T20:55:31.958Z,15.90
2017-10-11T20:58:00.191Z,15.90
2017-10-11T21:00:27.670Z,15.90
2017-10-11T21:02:55.148Z,15.90
2017-10-11T21:05:23.410Z,15.90
2017-10-11T21:07:50.970Z,15.80
2017-10-11T21:10:18.444Z,15.80
2017-10-11T21:12:46.669Z,15.80
2017-10-11T21:15:14.167Z,15.70
2017-10-11T21:17:41.633Z,15.80
2017-10-11T21:20:09.862Z,15.80
2017-10-11T21:22:37.352Z,15.80
2017-10-11T21:25:04.819Z,15.80
2017-10-11T21:27:33.133Z,15.70
2017-10-11T21:30:00.636Z,15.70
2017-10-11T21:32:28.101Z,15.80
2017-10-11T21:34:55.564Z,15.70
2017-10-11T21:37:23.030Z,15.70
2017-10-11T21:39:51.265Z,15.70
2017-10-11T21:42:18.740Z,15.60
2017-10-11T21:44:46.980Z,15.70
2017-10-11T21:47:14.445Z,15.70
2017-10-11T21:49:41.914Z,15.70
2017-10-11T21:52:09.488Z,15.70
2017-10-11T21:54:36.961Z,15.80
2017-10-11T21:57:05.190Z,15.70
2017-10-11T21:59:32.679Z,15.70
2017-10-11T22:02:00.696Z,15.80
2017-10-11T22:04:28.200Z,15.80
2017-10-11T22:06:55.663Z,15.70
2017-10-11T22:09:23.222Z,15.60
2017-10-11T22:11:50.691Z,15.70
2017-10-11T22:14:18.942Z,15.70
2017-10-11T22:16:46.497Z,15.70
2017-10-11T22:19:13.981Z,15.70
2017-10-11T22:21:42.217Z,15.70
2017-10-11T22:24:09.804Z,15.70
2017-10-11T22:26:37.359Z,15.60
2017-10-11T22:29:04.975Z,15.60
2017-10-11T22:31:32.430Z,15.70
2017-10-11T22:33:59.935Z,15.70
2017-10-11T22:36:27.393Z,15.50
2017-10-11T22:38:55.001Z,15.60
2017-10-11T22:41:22.509Z,15.50
2017-10-11T22:43:50.054Z,15.40
2017-10-11T22:46:17.546Z,15.30
2017-10-11T22:48:45.779Z,15.50
2017-10-11T22:51:13.247Z,15.40
2017-10-11T22:53:41.084Z,15.50
2017-10-11T22:56:09.381Z,15.50
2017-10-11T22:58:36.982Z,15.50
2017-10-11T23:01:05.321Z,15.50
2017-10-11T23:03:32.787Z,15.50
2017-10-11T23:06:00.343Z,15.50
2017-10-11T23:08:27.901Z,15.50
2017-10-11T23:10:56.237Z,15.40
2017-10-11T23:13:23.699Z,15.40
2017-10-11T23:15:51.197Z,15.50
2017-10-11T23:18:18.709Z,15.40
2017-10-11T23:20:46.178Z,15.30
2017-10-11T23:23:13.650Z,15.40
2017-10-11T23:25:41.225Z,15.40
2017-10-11T23:28:08.826Z,15.40
2017-10-11T23:30:36.387Z,15.40
2017-10-11T23:33:03.855Z,15.30
2017-10-11T23:35:31.357Z,15.40
2017-10-11T23:37:58.927Z,15.30
2017-10-11T23:40:26.482Z,15.20
2017-10-11T23:42:53.975Z,15.20
2017-10-11T23:45:21.481Z,15.30
2017-10-11T23:47:48.954Z,15.20
2017-10-11T23:50:16.501Z,15.20
2017-10-11T23:52:44.057Z,15.10
2017-10-11T23:55:11.517Z,15.10
2017-10-11T23:57:38.996Z,15.20
